Time;durP1;ratioP1;P1;durP2;ratioP2;P2;SDS_P1;SDS_P2;PMS_P1;PMS_P2;Temp;Humidity;BMP_temperature;BMP_pressure;BME280_temperature;BME280_humidity;BME280_pressure;Samples;Min_cycle;Max_cycle;Signal;HPM_P1;HPM_P2
2022/01/22 00:01:06;;;;;;;3.22;1.70;;;;;;;1.00;78.15;96654.87;4393373;32;20222;-57
2022/01/22 00:03:34;;;;;;;3.70;2.10;;;;;;;0.87;78.17;96649.63;4374655;32;20241;-58
2022/01/22 00:06:00;;;;;;;3.58;1.60;;;;;;;0.99;78.52;96636.78;4382698;32;20243;-57
2022/01/22 00:08:27;;;;;;;5.93;1.50;;;;;;;0.94;78.03;96620.91;4368241;32;20187;-56
2022/01/22 00:10:53;;;;;;;2.92;1.80;;;;;;;0.97;77.50;96613.47;4399431;32;20224;-58
2022/01/22 00:15:55;;;;;;;3.28;1.50;;;;;;;1.11;77.58;96603.81;4384522;32;20202;-57
2022/01/22 00:18:23;;;;;;;3.53;1.73;;;;;;;1.00;77.38;96605.25;4374404;32;20207;-56
2022/01/22 00:21:01;;;;;;;2.10;1.65;;;;;;;0.87;77.61;96613.06;4383041;32;20180;-56
2022/01/22 00:23:28;;;;;;;3.25;1.67;;;;;;;0.87;77.28;96618.28;4404486;32;20183;-56
2022/01/22 00:25:57;;;;;;;5.12;1.90;;;;;;;0.94;76.60;96613.88;4413917;32;20228;-57
2022/01/22 00:28:24;;;;;;;3.25;1.90;;;;;;;1.01;76.94;96612.09;4379428;32;20227;-56
2022/01/22 00:30:51;;;;;;;2.40;1.52;;;;;;;1.01;76.60;96613.91;4384858;32;20221;-59
2022/01/22 00:33:18;;;;;;;3.87;2.58;;;;;;;0.94;77.71;96615.69;4398723;32;20194;-56
2022/01/22 00:35:44;;;;;;;2.25;1.77;;;;;;;0.89;77.06;96612.88;4362215;32;20226;-58
2022/01/22 00:38:14;;;;;;;2.70;1.60;;;;;;;1.06;77.12;96594.97;4379590;32;20378;-55
2022/01/22 00:40:47;;;;;;;3.42;1.77;;;;;;;0.93;76.65;96601.03;4399380;32;20199;-55
2022/01/22 00:43:14;;;;;;;4.82;1.85;;;;;;;1.17;76.78;96603.03;4384720;32;20250;-56
2022/01/22 00:45:41;;;;;;;2.22;2.03;;;;;;;0.96;76.50;96608.47;4390932;32;20251;-56
2022/01/22 00:48:07;;;;;;;3.12;1.75;;;;;;;1.01;76.47;96600.84;4382234;32;20177;-56
2022/01/22 00:50:34;;;;;;;1.92;1.70;;;;;;;1.06;75.91;96608.84;4375816;32;20223;-57
2022/01/22 00:53:00;;;;;;;1.77;1.67;;;;;;;1.07;75.65;96601.81;4405286;32;20221;-58
2022/01/22 00:55:26;;;;;;;2.97;1.83;;;;;;;0.87;76.35;96601.81;4371324;32;20208;-57
2022/01/22 00:57:52;;;;;;;1.70;1.60;;;;;;;1.18;75.53;96594.19;4371876;32;20211;-57
2022/01/22 01:00:41;;;;;;;3.33;1.67;;;;;;;1.21;74.53;96585.13;4413735;32;20192;-57
2022/01/22 01:03:08;;;;;;;2.60;1.60;;;;;;;1.31;74.48;96582.91;4391940;32;20215;-55
2022/01/22 01:05:34;;;;;;;1.52;1.40;;;;;;;1.25;74.43;96574.06;4349680;32;20204;-56
2022/01/22 01:08:04;;;;;;;5.40;2.10;;;;;;;1.28;74.37;96578.06;4392617;32;20193;-58
2022/01/22 01:10:32;;;;;;;1.90;1.75;;;;;;;1.25;74.31;96576.66;4406478;32;20180;-56
2022/01/22 01:12:59;;;;;;;2.78;1.75;;;;;;;1.08;74.90;96582.53;4383736;32;20189;-57
2022/01/22 01:32:18;;;;;;;2.28;1.55;;;;;;;1.14;75.03;96559.00;4397653;32;20199;-57
2022/01/22 01:34:38;;;;;;;2.12;1.50;;;;;;;1.20;73.99;96558.22;4413689;32;20195;-57
2022/01/22 01:37:05;;;;;;;2.60;1.83;;;;;;;1.40;72.53;96557.34;4397842;32;20180;-57
2022/01/22 01:39:33;;;;;;;2.97;1.37;;;;;;;1.20;73.46;96571.28;4384967;32;20199;-57
2022/01/22 01:42:09;;;;;;;1.60;1.50;;;;;;;1.25;73.91;96562.78;4416055;32;20232;-58
2022/01/22 01:44:36;;;;;;;3.00;1.40;;;;;;;1.28;72.89;96565.00;4403577;32;20199;-57
2022/01/22 01:47:07;;;;;;;2.40;2.08;;;;;;;1.05;73.02;96573.28;4403563;32;20192;-57
2022/01/22 01:49:36;;;;;;;2.58;1.70;;;;;;;1.09;73.86;96574.47;4368123;32;20189;-58
2022/01/22 01:52:10;;;;;;;2.45;1.45;;;;;;;1.23;73.70;96570.87;4379388;32;20212;-56
2022/01/22 01:59:52;;;;;;;2.40;1.60;;;;;;;1.30;72.85;96566.41;4389586;32;20210;-57
2022/01/22 02:02:21;;;;;;;2.05;1.33;;;;;;;1.09;74.28;96569.25;4376413;32;20252;-57
2022/01/22 02:04:49;;;;;;;2.42;1.37;;;;;;;1.27;73.41;96548.53;4354631;32;20192;-58
2022/01/22 02:07:18;;;;;;;1.70;1.45;;;;;;;1.34;72.90;96551.94;4387567;32;20196;-56
2022/01/22 02:09:45;;;;;;;1.62;1.17;;;;;;;1.45;74.17;96547.09;4393718;32;20179;-57
2022/01/22 02:12:18;;;;;;;3.25;1.30;;;;;;;1.34;72.84;96536.25;4367965;32;20199;-55
2022/01/22 02:25:42;;;;;;;1.20;1.10;;;;;;;1.30;74.50;96508.91;4347051;32;20229;-57
2022/01/22 02:28:08;;;;;;;1.30;0.90;;;;;;;1.29;74.48;96512.53;4387034;32;20187;-57
2022/01/22 02:30:38;;;;;;;2.50;1.10;;;;;;;1.29;74.59;96516.97;4399170;32;20238;-56
2022/01/22 02:33:25;;;;;;;1.73;1.10;;;;;;;1.39;74.69;96527.81;4389719;32;20246;-54
2022/01/22 02:36:02;;;;;;;1.70;1.10;;;;;;;1.42;74.27;96516.94;4412655;32;20184;-58
2022/01/22 02:38:48;;;;;;;1.35;0.70;;;;;;;1.55;73.71;96519.50;4375839;32;20223;-55
2022/01/22 02:41:18;;;;;;;2.62;0.90;;;;;;;1.54;73.99;96519.72;4382147;32;20203;-57
2022/01/22 02:43:46;;;;;;;2.12;0.90;;;;;;;1.62;73.88;96516.88;4391447;32;20202;-57
2022/01/22 02:46:17;;;;;;;2.15;1.20;;;;;;;1.60;73.48;96524.13;4357691;32;20305;-58
2022/01/22 02:48:46;;;;;;;1.17;1.08;;;;;;;1.48;73.57;96515.28;4395955;32;20195;-57
2022/01/22 02:51:14;;;;;;;3.25;1.10;;;;;;;1.23;74.76;96523.03;4401438;32;20206;-58
2022/01/22 02:53:39;;;;;;;1.50;0.80;;;;;;;1.53;74.58;96521.53;4385896;32;20372;-56
2022/01/22 02:56:09;;;;;;;1.17;0.97;;;;;;;1.64;73.79;96520.09;4367230;32;20185;-57
2022/01/22 02:58:36;;;;;;;1.12;1.00;;;;;;;1.48;73.95;96523.94;4359088;32;20204;-59
2022/01/22 03:01:04;;;;;;;3.55;1.08;;;;;;;1.52;73.67;96519.09;4382566;32;20192;-55
2022/01/22 03:03:30;;;;;;;2.85;1.02;;;;;;;1.73;74.10;96521.44;4382906;32;20180;-56
2022/01/22 03:05:57;;;;;;;2.33;1.10;;;;;;;1.64;74.26;96530.53;4366667;32;20184;-57
2022/01/22 03:08:28;;;;;;;2.95;1.27;;;;;;;1.59;74.37;96532.97;4393673;32;20233;-66
2022/01/22 03:10:54;;;;;;;1.55;1.10;;;;;;;1.35;74.76;96527.41;4355614;32;20188;-57
2022/01/22 03:16:04;;;;;;;1.23;1.10;;;;;;;1.58;75.37;96526.13;4355052;32;20226;-57
2022/01/22 03:18:55;;;;;;;1.08;1.00;;;;;;;1.52;76.00;96522.53;4368603;32;20188;-56
2022/01/22 03:29:21;;;;;;;1.35;1.25;;;;;;;1.58;76.40;96520.91;4360870;32;20203;-57
2022/01/22 03:31:48;;;;;;;1.12;1.02;;;;;;;1.57;76.88;96514.06;4365650;32;20187;-58
2022/01/22 03:34:15;;;;;;;1.37;0.85;;;;;;;1.50;77.16;96513.28;4402467;32;20176;-57
2022/01/22 03:36:43;;;;;;;2.50;1.30;;;;;;;1.62;76.41;96512.44;4376778;32;20231;-57
2022/01/22 03:39:10;;;;;;;2.55;1.50;;;;;;;1.47;77.75;96513.69;4396064;32;20188;-54
2022/01/22 03:41:37;;;;;;;1.00;1.00;;;;;;;1.55;78.95;96518.69;4371647;32;20196;-56
2022/01/22 03:44:05;;;;;;;1.25;1.08;;;;;;;1.64;79.37;96512.25;4372276;32;20195;-56
2022/01/22 03:46:32;;;;;;;5.68;1.60;;;;;;;1.48;80.04;96508.25;4371862;32;20244;-56
2022/01/22 03:49:00;;;;;;;3.78;1.52;;;;;;;1.44;81.09;96514.12;4374217;32;20181;-57
2022/01/22 03:51:26;;;;;;;1.25;1.12;;;;;;;1.34;81.24;96510.13;4337061;32;20188;-58
2022/01/22 03:53:51;;;;;;;1.50;1.03;;;;;;;1.43;81.47;96504.69;4328627;32;20227;-58
2022/01/22 03:56:20;;;;;;;2.25;1.10;;;;;;;1.43;81.60;96512.53;4372790;32;20189;-54
2022/01/22 03:58:48;;;;;;;2.30;0.98;;;;;;;1.35;82.57;96513.53;4407049;32;20204;-57
2022/01/22 04:04:14;;;;;;;1.87;1.48;;;;;;;1.41;82.79;96512.72;4409186;32;20206;-57
2022/01/22 04:09:45;;;;;;;1.60;1.50;;;;;;;1.22;84.57;96522.22;4346181;32;20196;-57
2022/01/22 04:12:16;;;;;;;2.03;1.40;;;;;;;1.19;85.55;96520.00;4344317;32;20305;-57
2022/01/22 04:14:56;;;;;;;2.47;2.00;;;;;;;1.30;85.73;96521.19;4340308;32;20238;-55
2022/01/22 04:17:39;;;;;;;2.55;1.42;;;;;;;1.12;86.86;96521.81;4329138;32;20208;-64
2022/01/22 04:25:44;;;;;;;1.90;1.80;;;;;;;0.93;88.72;96507.78;4354181;32;20209;-58
2022/01/22 04:28:12;;;;;;;3.12;1.58;;;;;;;1.04;88.78;96517.59;4357152;32;20287;-57
2022/01/22 04:30:39;;;;;;;3.35;1.67;;;;;;;1.15;88.21;96497.09;4353421;32;20207;-57
2022/01/22 04:33:06;;;;;;;3.37;2.10;;;;;;;1.02;88.87;96498.75;4383708;32;20188;-55
2022/01/22 04:35:33;;;;;;;4.55;2.37;;;;;;;1.06;89.45;96506.97;4379242;32;20184;-55
2022/01/22 04:38:00;;;;;;;3.10;1.92;;;;;;;0.97;89.32;96506.38;4386680;32;20188;-54
2022/01/22 04:40:28;;;;;;;2.85;1.50;;;;;;;0.90;89.92;96512.63;4401544;32;20211;-56
2022/01/22 04:42:55;;;;;;;3.87;1.83;;;;;;;0.99;90.05;96516.63;4408216;32;20179;-57
2022/01/22 04:56:27;;;;;;;1.95;1.80;;;;;;;0.98;89.97;96515.84;4390189;32;20198;-56
2022/01/22 04:58:53;;;;;;;2.33;1.85;;;;;;;1.16;89.80;96517.81;4400675;32;20204;-61
2022/01/22 05:01:18;;;;;;;1.60;1.50;;;;;;;1.21;89.31;96514.59;4405830;32;20221;-58
2022/01/22 05:03:46;;;;;;;2.23;1.80;;;;;;;1.19;88.98;96512.19;4384541;32;20192;-58
2022/01/22 05:06:13;;;;;;;3.67;1.95;;;;;;;1.11;89.14;96512.38;4385939;32;20259;-57
2022/01/22 05:08:39;;;;;;;2.22;2.03;;;;;;;1.22;88.88;96516.19;4385954;32;20188;-56
2022/01/22 05:11:08;;;;;;;2.72;1.90;;;;;;;1.21;88.76;96514.59;4406276;32;20210;-57
2022/01/22 05:13:35;;;;;;;2.55;2.30;;;;;;;1.09;89.42;96511.78;4406915;32;20199;-55
2022/01/22 05:16:00;;;;;;;2.15;2.03;;;;;;;1.27;89.12;96504.09;4373781;32;20188;-57
2022/01/22 05:18:26;;;;;;;2.27;1.73;;;;;;;1.27;88.68;96517.16;4390215;32;20191;-55
2022/01/22 05:21:01;;;;;;;1.77;1.67;;;;;;;1.17;89.11;96506.34;4385297;32;20203;-55
2022/01/22 05:23:27;;;;;;;2.53;1.85;;;;;;;1.18;89.05;96499.31;4413028;32;20179;-57
2022/01/22 05:26:00;;;;;;;4.80;2.97;;;;;;;1.25;89.03;96506.09;4404010;32;20250;-59
2022/01/22 05:37:09;;;;;;;3.53;2.42;;;;;;;1.11;89.63;96488.88;4300299;33;20203;-57
2022/01/22 05:39:36;;;;;;;4.50;2.40;;;;;;;1.18;90.32;96491.47;4373355;32;20259;-57
2022/01/22 05:42:09;;;;;;;3.08;2.60;;;;;;;1.28;90.48;96499.66;4393807;32;20210;-56
2022/01/22 05:44:36;;;;;;;2.85;2.45;;;;;;;1.19;90.80;96512.19;4400445;32;20309;-56
2022/01/22 05:47:05;;;;;;;3.28;2.70;;;;;;;1.09;91.87;96496.09;4393776;32;20304;-57
2022/01/22 05:49:36;;;;;;;2.67;2.47;;;;;;;1.00;92.00;96507.78;4406573;32;20180;-58
2022/01/22 05:52:07;;;;;;;3.35;2.75;;;;;;;1.13;91.59;96510.37;4368413;32;20193;-58
2022/01/22 06:00:25;;;;;;;3.15;2.40;;;;;;;1.04;92.58;96519.41;4380708;32;20199;-57
2022/01/22 06:02:51;;;;;;;3.12;2.78;;;;;;;1.18;92.80;96526.25;4352777;32;20212;-59
2022/01/22 06:05:18;;;;;;;3.85;2.95;;;;;;;0.96;93.58;96524.87;4376021;32;20181;-56
2022/01/22 06:07:44;;;;;;;3.28;2.60;;;;;;;1.09;93.71;96526.66;4413072;32;20188;-57
2022/01/22 06:10:18;;;;;;;3.40;2.83;;;;;;;0.99;94.00;96529.69;4395751;32;20279;-58
2022/01/22 06:15:18;;;;;;;3.87;3.45;;;;;;;1.21;94.21;96525.84;4400712;32;20198;-58
2022/01/22 06:17:45;;;;;;;5.40;3.03;;;;;;;1.06;93.99;96533.09;4367928;32;20261;-58
2022/01/22 06:20:13;;;;;;;3.10;2.85;;;;;;;1.12;93.83;96527.06;4355676;32;20255;-58
2022/01/22 06:22:40;;;;;;;5.37;3.25;;;;;;;1.04;94.18;96522.03;4369773;32;20181;-57
2022/01/22 06:25:07;;;;;;;6.62;3.72;;;;;;;1.24;94.09;96530.66;4358656;32;20189;-57
2022/01/22 06:27:34;;;;;;;3.85;3.47;;;;;;;1.06;94.31;96527.06;4350971;32;20256;-57
2022/01/22 06:30:01;;;;;;;4.53;3.00;;;;;;;1.16;94.54;96527.44;4380409;32;20210;-55
2022/01/22 06:32:28;;;;;;;3.72;3.42;;;;;;;1.17;94.63;96542.94;4365049;32;20199;-57
2022/01/22 06:34:56;;;;;;;4.25;3.62;;;;;;;1.17;94.83;96548.16;4371027;32;20184;-56
2022/01/22 06:37:21;;;;;;;5.10;3.50;;;;;;;1.27;94.71;96545.91;4377569;32;20184;-57
2022/01/22 06:42:34;;;;;;;4.30;3.10;;;;;;;1.25;94.57;96553.16;4356088;32;20181;-55
2022/01/22 06:45:12;;;;;;;6.18;3.83;;;;;;;1.40;94.06;96580.88;4389807;32;20185;-57
2022/01/22 06:47:39;;;;;;;4.55;2.97;;;;;;;1.32;93.99;96553.94;4385016;32;20188;-54
2022/01/22 06:50:05;;;;;;;3.62;3.33;;;;;;;1.31;93.90;96575.88;4372588;32;20215;-57
2022/01/22 06:52:31;;;;;;;4.97;3.10;;;;;;;1.41;93.45;96561.59;4390262;32;20230;-57
2022/01/22 06:54:59;;;;;;;3.60;3.33;;;;;;;1.43;93.28;96564.81;4408866;32;20191;-58
2022/01/22 06:57:26;;;;;;;3.40;3.10;;;;;;;1.50;92.96;96578.63;4403344;32;20263;-55
2022/01/22 06:59:51;;;;;;;3.95;3.65;;;;;;;1.52;93.10;96564.34;4408847;32;20184;-59
2022/01/22 07:02:18;;;;;;;6.30;3.73;;;;;;;1.36;93.20;96572.66;4385132;32;20194;-56
2022/01/22 07:04:46;;;;;;;4.45;3.72;;;;;;;1.30;92.81;96566.41;4386890;32;20206;-58
2022/01/22 07:07:12;;;;;;;7.07;3.40;;;;;;;1.41;92.72;96561.59;4393422;32;20274;-58
2022/01/22 07:09:39;;;;;;;4.20;3.47;;;;;;;1.55;92.47;96552.69;4401227;32;20268;-58
2022/01/22 07:12:16;;;;;;;3.70;3.40;;;;;;;1.60;92.31;96565.97;4372918;32;20231;-55
2022/01/22 07:14:45;;;;;;;5.18;3.78;;;;;;;1.44;93.25;96559.38;4394096;32;20192;-58
2022/01/22 07:17:13;;;;;;;4.43;3.83;;;;;;;1.21;93.96;96570.25;4392214;32;20192;-57
2022/01/22 07:19:43;;;;;;;5.10;4.35;;;;;;;1.36;93.95;96576.06;4404641;32;20183;-56
2022/01/22 07:22:33;;;;;;;5.12;3.72;;;;;;;1.43;93.93;96576.06;4405719;32;20179;-57
2022/01/22 07:25:00;;;;;;;4.43;4.12;;;;;;;1.43;93.69;96577.88;4380787;32;20195;-58
2022/01/22 07:27:26;;;;;;;8.63;4.47;;;;;;;1.36;94.16;96586.53;4395864;32;20187;-58
2022/01/22 07:29:55;;;;;;;4.40;4.03;;;;;;;1.43;94.37;96580.47;4398375;32;20324;-58
2022/01/22 07:32:33;;;;;;;4.87;4.40;;;;;;;1.31;94.73;96582.91;4372040;32;20184;-58
2022/01/22 07:34:59;;;;;;;4.78;4.30;;;;;;;1.35;94.60;96574.47;4406094;32;20255;-57
2022/01/22 07:37:26;;;;;;;5.43;4.60;;;;;;;1.30;94.95;96587.31;4398793;32;20246;-56
2022/01/22 07:39:55;;;;;;;6.15;4.85;;;;;;;1.38;94.98;96591.53;4405936;32;20189;-58
2022/01/22 07:42:21;;;;;;;4.75;4.40;;;;;;;1.34;95.24;96591.12;4421969;32;20196;-58
2022/01/22 07:44:48;;;;;;;4.40;4.05;;;;;;;1.34;95.26;96595.56;4409677;32;20210;-58
2022/01/22 07:47:16;;;;;;;5.53;5.03;;;;;;;1.49;95.83;96595.34;4417472;32;20188;-57
2022/01/22 07:49:43;;;;;;;4.93;4.60;;;;;;;1.45;95.81;96602.00;4412336;32;20332;-58
2022/01/22 07:52:09;;;;;;;4.93;4.47;;;;;;;1.40;95.59;96607.03;4412634;32;20210;-57
2022/01/22 07:54:35;;;;;;;5.10;4.70;;;;;;;1.40;95.84;96618.28;4416150;32;20243;-56
2022/01/22 07:57:04;;;;;;;5.57;4.93;;;;;;;1.31;96.21;96614.25;4386365;32;20187;-58
2022/01/22 07:59:34;;;;;;;5.30;4.90;;;;;;;1.45;96.30;96628.12;4402023;32;20195;-57
2022/01/22 08:02:07;;;;;;;5.10;4.40;;;;;;;1.34;96.54;96616.47;4373881;32;20187;-58
2022/01/22 08:04:34;;;;;;;5.62;4.60;;;;;;;1.28;96.82;96615.47;4391358;32;20164;-57
2022/01/22 08:07:02;;;;;;;5.30;4.85;;;;;;;1.41;96.42;96619.09;4392047;32;20184;-57
2022/01/22 08:09:29;;;;;;;5.40;4.90;;;;;;;1.47;96.13;96619.06;4380869;32;20224;-60
2022/01/22 08:11:56;;;;;;;6.43;5.10;;;;;;;1.44;96.22;96611.66;4383289;32;20258;-58
2022/01/22 08:14:22;;;;;;;5.97;5.47;;;;;;;1.46;96.15;96614.03;4388558;32;20184;-59
2022/01/22 08:16:49;;;;;;;5.93;5.43;;;;;;;1.40;96.33;96617.47;4410970;32;20203;-54
2022/01/22 08:19:20;;;;;;;5.12;4.72;;;;;;;1.11;96.79;96614.28;4413988;32;20195;-58
2022/01/22 08:21:47;;;;;;;4.95;4.57;;;;;;;1.25;96.70;96612.44;4415389;32;20184;-58
2022/01/22 08:24:15;;;;;;;5.07;4.57;;;;;;;1.42;96.42;96610.25;4393288;32;20188;-58
2022/01/22 08:26:47;;;;;;;6.20;4.87;;;;;;;1.35;96.18;96618.88;4403741;32;20288;-56
2022/01/22 08:29:14;;;;;;;5.00;4.70;;;;;;;1.56;95.73;96612.62;4383564;32;20264;-58
2022/01/22 08:32:06;;;;;;;5.00;4.65;;;;;;;1.48;95.63;96612.03;4394191;32;20694;-57
2022/01/22 08:37:15;;;;;;;4.85;4.43;;;;;;;1.33;96.26;96618.28;4385184;32;20257;-56
2022/01/22 08:39:43;;;;;;;5.20;4.80;;;;;;;1.39;96.27;96627.13;4382771;32;20260;-58
2022/01/22 08:42:10;;;;;;;5.10;4.72;;;;;;;1.37;96.40;96623.91;4388658;32;20172;-58
2022/01/22 08:44:39;;;;;;;4.47;4.12;;;;;;;1.34;96.69;96635.56;4375240;32;20224;-57
2022/01/22 08:47:07;;;;;;;5.72;5.22;;;;;;;1.40;96.78;96627.94;4388454;32;20246;-58
2022/01/22 08:49:33;;;;;;;5.95;4.57;;;;;;;1.37;96.45;96640.41;4373128;32;20172;-58
2022/01/22 08:52:01;;;;;;;5.97;5.40;;;;;;;1.44;96.25;96640.41;4370136;32;20180;-56
2022/01/22 08:54:27;;;;;;;5.05;4.65;;;;;;;1.29;96.57;96637.19;4379129;32;20188;-57
2022/01/22 08:56:53;;;;;;;5.50;5.00;;;;;;;1.28;96.59;96639.00;4393244;32;20218;-57
2022/01/22 08:59:19;;;;;;;5.45;4.97;;;;;;;1.35;96.47;96649.44;4383873;32;20246;-57
2022/01/22 09:01:48;;;;;;;5.50;5.10;;;;;;;1.51;96.16;96646.41;4389552;32;20189;-57
2022/01/22 09:04:16;;;;;;;5.22;4.82;;;;;;;1.47;95.91;96660.09;4388258;32;20231;-58
2022/01/22 09:06:43;;;;;;;5.53;5.00;;;;;;;1.45;96.11;96651.66;4385622;32;20176;-55
2022/01/22 09:09:13;;;;;;;6.62;5.95;;;;;;;1.56;95.99;96654.47;4365761;32;20177;-57
2022/01/22 09:11:44;;;;;;;6.97;5.47;;;;;;;1.45;96.50;96657.69;4370103;32;20190;-58
2022/01/22 09:14:17;;;;;;;8.50;5.90;;;;;;;1.44;96.21;96653.47;4379166;32;22493;-58
2022/01/22 09:16:43;;;;;;;6.53;5.90;;;;;;;1.55;96.27;96658.06;4355859;32;20271;-58
2022/01/22 09:19:11;;;;;;;5.43;5.07;;;;;;;1.44;96.39;96665.75;4361427;32;20225;-60
2022/01/22 09:21:44;;;;;;;6.50;5.85;;;;;;;1.51;96.73;96671.75;4381201;32;20203;-57
2022/01/22 09:24:12;;;;;;;5.65;4.90;;;;;;;1.50;96.63;96670.16;4404970;32;20299;-58
2022/01/22 09:26:39;;;;;;;5.95;5.45;;;;;;;1.42;96.46;96678.22;4349158;32;20205;-57
2022/01/22 09:29:05;;;;;;;5.60;5.20;;;;;;;1.70;96.24;96681.38;4389406;32;20200;-58
2022/01/22 09:31:32;;;;;;;5.97;5.53;;;;;;;1.65;95.38;96687.25;4386272;32;20184;-57
2022/01/22 09:33:59;;;;;;;5.95;5.55;;;;;;;1.84;95.42;96676.94;4359576;32;20209;-58
2022/01/22 09:36:28;;;;;;;5.65;5.25;;;;;;;1.81;95.02;96688.62;4371603;32;20223;-57
2022/01/22 09:38:56;;;;;;;6.07;5.47;;;;;;;1.67;95.53;96684.41;4379343;32;20196;-56
2022/01/22 09:41:24;;;;;;;5.82;5.32;;;;;;;1.62;95.44;96677.19;4373430;32;20252;-58
2022/01/22 09:43:50;;;;;;;6.80;5.85;;;;;;;1.59;95.77;96684.63;4387503;32;20226;-57
2022/01/22 09:46:16;;;;;;;6.90;6.05;;;;;;;1.61;95.97;96693.06;4390394;32;20320;-57
2022/01/22 09:48:50;;;;;;;6.53;5.93;;;;;;;1.52;95.81;96686.44;4387082;32;20288;-58
2022/01/22 09:51:17;;;;;;;6.43;5.82;;;;;;;1.76;95.63;96696.28;4389064;32;20256;-58
2022/01/22 09:53:45;;;;;;;6.65;5.68;;;;;;;1.73;95.46;96701.91;4392643;32;20253;-58
2022/01/22 09:56:12;;;;;;;5.55;5.05;;;;;;;1.86;95.01;96695.88;4360851;32;20326;-58
2022/01/22 09:58:38;;;;;;;6.93;5.90;;;;;;;1.64;95.12;96703.94;4375566;32;20193;-58
2022/01/22 10:01:30;;;;;;;6.32;5.72;;;;;;;1.76;95.48;96708.53;4350705;32;20250;-58
2022/01/22 10:04:04;;;;;;;5.40;4.90;;;;;;;1.69;95.99;96705.91;4373408;32;20287;-58
2022/01/22 10:06:33;;;;;;;5.47;4.97;;;;;;;1.96;95.02;96711.94;4389893;32;20264;-58
2022/01/22 10:09:12;;;;;;;5.25;4.75;;;;;;;1.96;94.27;96717.16;4389227;32;20181;-57
2022/01/22 10:11:39;;;;;;;6.35;5.75;;;;;;;1.95;94.65;96715.56;4349472;32;20181;-57
2022/01/22 10:14:04;;;;;;;5.65;5.25;;;;;;;1.78;94.75;96719.59;4378472;32;20200;-58
2022/01/22 10:16:39;;;;;;;5.53;5.10;;;;;;;1.79;95.00;96716.78;4376138;32;20242;-57
2022/01/22 10:19:22;;;;;;;5.37;4.97;;;;;;;1.94;94.72;96722.59;4387944;32;20246;-58
2022/01/22 10:21:56;;;;;;;6.40;5.15;;;;;;;1.73;95.21;96723.63;4362075;32;20192;-58
2022/01/22 10:24:46;;;;;;;6.75;6.25;;;;;;;1.84;95.74;96719.59;4370093;32;20196;-58
2022/01/22 10:29:57;;;;;;;6.55;5.00;;;;;;;1.84;94.76;96717.00;4399738;32;20276;-58
2022/01/22 10:32:37;;;;;;;6.10;5.70;;;;;;;1.78;95.20;96720.41;4368063;32;20192;-62
2022/01/22 10:35:15;;;;;;;5.25;4.85;;;;;;;1.80;95.28;96717.59;4363833;32;20247;-58
2022/01/22 10:37:41;;;;;;;5.90;5.47;;;;;;;1.64;95.81;96719.62;4363654;32;22206;-59
2022/01/22 10:40:39;;;;;;;6.50;5.93;;;;;;;1.78;95.84;96727.47;4372721;32;20195;-58
2022/01/22 10:46:19;;;;;;;5.70;5.20;;;;;;;1.81;95.61;96712.16;4354398;32;20243;-58
2022/01/22 10:49:00;;;;;;;5.27;4.87;;;;;;;1.82;95.02;96703.31;4378250;32;20283;-58
2022/01/22 10:51:28;;;;;;;5.80;5.20;;;;;;;1.79;94.98;96714.19;4387689;32;20314;-58
2022/01/22 10:53:57;;;;;;;7.47;5.83;;;;;;;1.76;95.23;96711.97;4377503;32;20192;-59
2022/01/22 10:56:23;;;;;;;5.33;4.93;;;;;;;1.93;94.69;96707.91;4377424;32;20358;-58
2022/01/22 10:59:00;;;;;;;6.03;5.53;;;;;;;2.07;94.30;96708.69;4374925;32;20372;-58
2022/01/22 11:01:43;;;;;;;4.97;4.63;;;;;;;2.03;94.19;96717.97;4385058;32;20231;-57
2022/01/22 11:04:14;;;;;;;5.85;5.28;;;;;;;1.82;94.82;96705.94;4374135;32;20269;-58
2022/01/22 11:06:51;;;;;;;5.70;5.18;;;;;;;1.88;94.73;96718.16;4363774;32;20207;-58
2022/01/22 11:09:18;;;;;;;6.35;5.85;;;;;;;1.86;95.31;96706.34;4364179;32;20181;-58
2022/01/22 11:11:43;;;;;;;5.68;5.15;;;;;;;1.86;95.29;96706.34;4353302;32;20232;-57
2022/01/22 11:14:11;;;;;;;6.10;5.30;;;;;;;1.89;95.16;96711.13;4362435;32;20207;-57
2022/01/22 11:16:38;;;;;;;5.87;5.37;;;;;;;1.80;94.88;96710.56;4362209;32;20191;-57
2022/01/22 11:19:03;;;;;;;5.10;4.70;;;;;;;1.92;95.58;96719.38;4370867;32;20197;-56
2022/01/22 11:21:31;;;;;;;5.93;5.43;;;;;;;1.78;95.29;96724.84;4341687;32;20321;-57
2022/01/22 11:23:57;;;;;;;4.97;4.57;;;;;;;1.76;95.15;96724.22;4372108;32;20203;-57
2022/01/22 11:26:25;;;;;;;5.67;5.20;;;;;;;1.88;95.36;96725.22;4365072;32;20252;-57
2022/01/22 11:28:53;;;;;;;5.25;4.78;;;;;;;1.94;95.15;96724.41;4343265;32;20195;-58
2022/01/22 11:31:23;;;;;;;6.03;5.37;;;;;;;2.16;94.53;96722.34;4354650;32;20177;-58
2022/01/22 11:33:50;;;;;;;5.57;5.07;;;;;;;2.19;94.19;96732.41;4380839;32;20284;-57
2022/01/22 11:36:27;;;;;;;5.00;4.70;;;;;;;2.17;93.85;96737.03;4378224;32;20346;-56
2022/01/22 11:38:59;;;;;;;4.93;4.50;;;;;;;2.31;93.48;96730.75;4334481;32;20295;-58
2022/01/22 11:41:26;;;;;;;6.13;5.63;;;;;;;2.32;93.43;96733.16;4394537;32;20181;-57
2022/01/22 11:44:01;;;;;;;5.23;4.83;;;;;;;2.37;92.96;96740.41;4358553;32;20464;-57
2022/01/22 11:46:34;;;;;;;7.80;5.37;;;;;;;2.39;92.50;96733.16;4354936;32;20277;-57
2022/01/22 11:49:18;;;;;;;5.17;4.83;;;;;;;2.28;92.92;96737.25;4367937;32;20277;-57
2022/01/22 11:52:07;;;;;;;5.60;5.10;;;;;;;2.21;93.49;96725.16;4366591;32;20347;-57
2022/01/22 11:54:49;;;;;;;5.43;4.93;;;;;;;2.00;94.17;96724.41;4359309;32;20364;-57
2022/01/22 11:57:16;;;;;;;6.00;5.20;;;;;;;2.12;94.09;96726.38;4402578;32;20284;-57
2022/01/22 11:59:43;;;;;;;5.07;4.67;;;;;;;2.24;93.29;96719.53;4366593;32;20363;-57
2022/01/22 12:02:13;;;;;;;5.40;5.00;;;;;;;2.06;93.40;96723.59;4379699;32;20279;-57
2022/01/22 12:04:41;;;;;;;5.57;5.05;;;;;;;1.92;93.99;96724.59;4387693;32;20224;-57
2022/01/22 12:07:11;;;;;;;5.43;4.93;;;;;;;1.92;94.57;96727.22;4391788;32;20263;-57
2022/01/22 12:15:39;;;;;;;9.40;8.43;;;;;;;2.00;94.60;96718.38;4343992;32;20333;-57
2022/01/22 12:18:16;;;;;;;10.80;8.93;;;;;;;2.21;94.48;96723.34;4389809;32;20264;-57
2022/01/22 12:23:33;;;;;;;6.10;5.50;;;;;;;2.09;94.37;96727.59;4367421;32;20280;-57
2022/01/22 12:26:10;;;;;;;5.70;5.20;;;;;;;2.16;93.82;96722.34;4369065;32;20342;-57
2022/01/22 12:28:45;;;;;;;5.87;5.27;;;;;;;2.18;94.18;96709.88;4372855;32;20325;-57
2022/01/22 12:31:16;;;;;;;6.87;6.13;;;;;;;2.32;93.84;96716.66;4388700;32;20354;-57
2022/01/22 12:33:46;;;;;;;9.63;6.05;;;;;;;2.24;93.91;96720.31;4369542;32;20294;-58
2022/01/22 12:36:18;;;;;;;6.40;5.78;;;;;;;2.39;93.40;96720.88;4369700;32;20259;-58
2022/01/22 12:38:58;;;;;;;5.97;5.33;;;;;;;2.42;93.43;96719.66;4383744;32;20262;-58
2022/01/22 12:44:01;;;;;;;6.30;5.50;;;;;;;2.51;93.02;96718.41;4390562;32;20287;-57
2022/01/22 12:46:30;;;;;;;6.20;5.70;;;;;;;2.54;92.82;96715.37;4400956;32;20298;-57
2022/01/22 12:49:01;;;;;;;6.20;5.70;;;;;;;2.52;92.90;96724.44;4387665;32;20311;-57
2022/01/22 12:51:28;;;;;;;5.83;5.40;;;;;;;2.47;92.83;96725.09;4371055;32;20340;-57
2022/01/22 12:53:54;;;;;;;5.90;5.47;;;;;;;2.50;92.95;96724.66;4387607;32;20288;-58
2022/01/22 12:59:03;;;;;;;6.57;5.87;;;;;;;2.47;93.63;96711.19;4385477;32;20351;-57
2022/01/22 13:01:31;;;;;;;6.57;6.03;;;;;;;2.43;93.66;96710.78;4361147;32;20318;-57
2022/01/22 13:03:58;;;;;;;6.97;5.70;;;;;;;2.46;93.40;96713.00;4377187;32;20382;-57
2022/01/22 13:06:37;;;;;;;6.33;5.80;;;;;;;2.35;93.83;96718.88;4377005;32;20283;-58
2022/01/22 13:09:08;;;;;;;6.80;5.87;;;;;;;2.41;93.82;96715.44;4386673;32;20280;-57
2022/01/22 13:11:34;;;;;;;6.57;6.07;;;;;;;2.41;94.06;96711.00;4368883;32;20276;-58
2022/01/22 13:14:00;;;;;;;6.27;5.70;;;;;;;2.51;93.29;96700.06;4377763;32;20290;-58
2022/01/22 13:16:27;;;;;;;6.53;5.90;;;;;;;2.48;93.39;96704.94;4395538;32;20216;-57
2022/01/22 13:19:00;;;;;;;6.23;5.83;;;;;;;2.54;92.93;96704.91;4382156;32;20268;-57
2022/01/22 13:21:34;;;;;;;6.00;5.40;;;;;;;2.48;93.21;96712.81;4360883;32;20681;-58
2022/01/22 13:24:08;;;;;;;6.77;5.73;;;;;;;2.37;93.64;96712.41;4383744;32;20313;-57
2022/01/22 13:27:07;;;;;;;6.80;6.20;;;;;;;2.10;94.29;96715.31;4392599;32;20292;-57
2022/01/22 13:29:41;;;;;;;7.10;6.50;;;;;;;2.30;94.76;96723.91;4381293;32;20271;-58
2022/01/22 13:32:28;;;;;;;9.17;7.20;;;;;;;2.41;93.76;96725.91;4381614;32;20283;-58
2022/01/22 13:49:27;;;;;;;7.67;5.90;;;;;;;2.35;94.21;96726.72;4314819;32;20292;-58
2022/01/22 13:51:55;;;;;;;6.30;5.70;;;;;;;2.45;93.74;96732.34;4376429;32;20286;-57
2022/01/22 13:54:30;;;;;;;6.90;6.27;;;;;;;2.51;93.54;96730.69;4376824;32;20292;-58
2022/01/22 13:56:59;;;;;;;7.37;6.77;;;;;;;2.46;93.62;96735.78;4369934;32;20332;-58
2022/01/22 13:59:36;;;;;;;6.27;5.77;;;;;;;2.30;93.92;96731.75;4377733;32;20279;-58